createdAt,value
2022-11-23T00:00:06.741Z,7.97
2022-11-23T00:02:33.452Z,8.70
2022-11-23T00:05:00.050Z,8.30
2022-11-23T00:07:26.671Z,7.60
2022-11-23T00:09:53.365Z,7.57
2022-11-23T00:12:19.984Z,8.10
2022-11-23T00:14:46.681Z,7.33
2022-11-23T00:17:13.269Z,7.53
2022-11-23T00:19:39.841Z,7.50
2022-11-23T00:22:06.427Z,7.40
2022-11-23T00:24:33.127Z,7.20
2022-11-23T00:26:59.719Z,7.00
2022-11-23T00:29:27.366Z,7.00
2022-11-23T00:31:53.938Z,7.07
2022-11-23T00:34:20.516Z,7.07
2022-11-23T00:36:48.670Z,7.37
2022-11-23T00:39:15.340Z,7.17
2022-11-23T00:41:41.918Z,6.40
2022-11-23T00:44:08.521Z,6.68
2022-11-23T00:46:35.241Z,7.30
2022-11-23T00:49:01.865Z,8.02
2022-11-23T00:51:31.330Z,6.50
2022-11-23T00:53:59.555Z,6.35
2022-11-23T00:56:28.555Z,5.95
2022-11-23T00:58:57.700Z,6.05
2022-11-23T01:01:27.028Z,7.03
2022-11-23T01:03:55.684Z,6.43
2022-11-23T01:06:26.311Z,7.03
2022-11-23T01:09:01.290Z,6.28
2022-11-23T01:11:31.052Z,6.22
2022-11-23T01:14:03.226Z,6.40
2022-11-23T01:16:32.805Z,6.20
2022-11-23T01:19:08.265Z,6.13
2022-11-23T01:21:35.449Z,6.32
2022-11-23T01:24:11.815Z,5.97
2022-11-23T01:26:39.403Z,6.10
2022-11-23T01:29:06.232Z,6.30
2022-11-23T01:31:32.885Z,6.18
2022-11-23T01:34:01.436Z,5.97
2022-11-23T01:36:33.368Z,6.03
2022-11-23T01:39:01.490Z,6.63
2022-11-23T01:41:31.856Z,6.20
2022-11-23T01:43:59.175Z,6.60
2022-11-23T01:46:26.049Z,6.47
2022-11-23T01:49:19.316Z,6.63
2022-11-23T01:51:49.049Z,6.47
2022-11-23T01:54:24.833Z,5.78
2022-11-23T01:56:56.813Z,6.25
2022-11-23T01:59:25.419Z,6.13
2022-11-23T02:01:52.189Z,7.32
2022-11-23T02:04:29.168Z,6.43
2022-11-23T02:06:57.353Z,6.80
2022-11-23T02:09:24.625Z,6.53
2022-11-23T02:11:51.954Z,6.68
2022-11-23T02:14:23.198Z,6.33
2022-11-23T02:16:50.544Z,6.25
2022-11-23T02:19:29.541Z,5.90
2022-11-23T02:21:56.638Z,6.18
2022-11-23T02:24:33.657Z,6.27
2022-11-23T02:27:01.885Z,6.88
2022-11-23T02:29:29.680Z,6.93
2022-11-23T02:31:56.508Z,6.50
2022-11-23T02:34:23.141Z,6.63
2022-11-23T02:36:54.857Z,6.28
2022-11-23T02:39:38.082Z,6.05
2022-11-23T02:42:05.905Z,6.15
2022-11-23T02:44:51.374Z,6.60
2022-11-23T02:47:18.137Z,6.07
2022-11-23T02:49:49.508Z,6.15
2022-11-23T02:52:18.080Z,5.53
2022-11-23T02:54:44.983Z,5.97
2022-11-23T02:57:11.673Z,5.82
2022-11-23T02:59:38.359Z,5.70
2022-11-23T03:02:05.855Z,5.53
2022-11-23T03:04:32.678Z,5.90
2022-11-23T03:06:59.560Z,5.10
2022-11-23T03:09:26.412Z,5.63
2022-11-23T03:11:54.123Z,5.82
2022-11-23T03:14:21.290Z,5.93
2022-11-23T03:16:47.986Z,5.32
2022-11-23T03:19:15.059Z,5.38
2022-11-23T03:21:41.644Z,6.43
2022-11-23T03:24:08.432Z,5.40
2022-11-23T03:26:35.048Z,5.85
2022-11-23T03:29:01.730Z,5.45
2022-11-23T03:31:28.349Z,5.20
2022-11-23T03:33:55.013Z,5.30
2022-11-23T03:36:21.657Z,5.38
2022-11-23T03:38:48.238Z,5.00
2022-11-23T03:41:14.849Z,5.07
2022-11-23T03:43:41.493Z,5.32
2022-11-23T03:46:08.091Z,5.07
2022-11-23T03:48:34.704Z,5.00
2022-11-23T03:51:01.469Z,4.88
2022-11-23T03:53:28.062Z,4.72
2022-11-23T03:55:58.199Z,4.65
2022-11-23T03:58:24.844Z,4.47
2022-11-23T04:00:51.473Z,5.00
2022-11-23T04:03:18.273Z,5.38
2022-11-23T04:05:44.987Z,4.60
2022-11-23T04:08:11.654Z,5.13
2022-11-23T04:10:38.393Z,4.93
2022-11-23T04:13:05.090Z,4.60
2022-11-23T04:15:31.666Z,4.65
2022-11-23T04:17:58.325Z,4.43
2022-11-23T04:20:24.982Z,4.18
2022-11-23T04:22:51.590Z,4.78
2022-11-23T04:25:18.548Z,4.30
2022-11-23T04:27:46.017Z,4.78
2022-11-23T04:30:13.023Z,4.93
2022-11-23T04:32:39.671Z,5.22
2022-11-23T04:35:06.511Z,4.85
2022-11-23T04:37:33.186Z,5.00
2022-11-23T04:39:59.801Z,5.13
2022-11-23T04:42:26.474Z,4.68
2022-11-23T04:44:53.069Z,5.15
2022-11-23T04:47:19.675Z,4.70
2022-11-23T04:49:46.313Z,4.82
2022-11-23T04:52:12.959Z,4.78
2022-11-23T04:54:39.568Z,5.00
2022-11-23T04:57:08.414Z,4.88
2022-11-23T04:59:35.138Z,4.40
2022-11-23T05:02:01.988Z,4.28
2022-11-23T05:04:28.653Z,4.22
2022-11-23T05:06:55.280Z,5.05
2022-11-23T05:09:21.926Z,4.95
2022-11-23T05:11:48.507Z,4.75
2022-11-23T05:14:15.282Z,4.65
2022-11-23T05:16:41.876Z,5.03
2022-11-23T05:19:08.945Z,4.55
2022-11-23T05:21:35.597Z,4.90
2022-11-23T05:24:02.179Z,4.78
2022-11-23T05:26:28.953Z,4.43
2022-11-23T05:28:55.571Z,4.53
2022-11-23T05:31:22.350Z,4.40
2022-11-23T05:33:49.117Z,4.30
2022-11-23T05:36:15.967Z,3.95
2022-11-23T05:38:43.421Z,5.05
2022-11-23T05:41:10.078Z,4.70
2022-11-23T05:43:36.679Z,4.47
2022-11-23T05:46:03.495Z,4.10
2022-11-23T05:48:30.136Z,4.38
2022-11-23T05:51:02.158Z,4.57
2022-11-23T05:53:31.951Z,4.05
2022-11-23T05:56:02.844Z,4.28
2022-11-23T05:58:29.704Z,4.20
2022-11-23T06:01:01.074Z,4.60
2022-11-23T06:03:27.982Z,4.25
2022-11-23T06:05:54.763Z,4.60
2022-11-23T06:08:21.349Z,4.57
2022-11-23T06:10:48.252Z,4.80
2022-11-23T06:13:15.055Z,4.85
2022-11-23T06:15:41.972Z,4.50
2022-11-23T06:20:50.177Z,4.68
2022-11-23T06:23:17.106Z,5.10
2022-11-23T06:25:43.761Z,4.10
2022-11-23T06:28:10.687Z,4.72
2022-11-23T06:30:37.273Z,4.30
2022-11-23T06:33:04.664Z,4.47
2022-11-23T06:35:31.363Z,4.03
2022-11-23T06:37:58.457Z,4.10
2022-11-23T06:40:25.132Z,4.90
2022-11-23T06:42:53.749Z,3.85
2022-11-23T06:45:20.366Z,4.18
2022-11-23T06:47:46.954Z,4.65
2022-11-23T06:50:14.639Z,4.15
2022-11-23T06:52:41.350Z,4.50
2022-11-23T06:55:08.264Z,5.22
2022-11-23T06:57:34.820Z,4.68
2022-11-23T07:00:01.491Z,4.45
2022-11-23T07:02:28.145Z,3.95
2022-11-23T07:04:54.834Z,4.28
2022-11-23T07:07:21.766Z,4.35
2022-11-23T07:09:48.402Z,4.25
2022-11-23T07:12:14.989Z,5.30
2022-11-23T07:14:41.639Z,4.50
2022-11-23T07:17:08.227Z,4.18
2022-11-23T07:19:35.032Z,4.03
2022-11-23T07:22:02.243Z,4.32
2022-11-23T07:24:32.854Z,5.68
2022-11-23T07:27:03.166Z,4.28
2022-11-23T07:29:30.762Z,4.57
2022-11-23T07:31:57.530Z,4.80
2022-11-23T07:34:24.187Z,4.60
2022-11-23T07:36:51.757Z,4.68
2022-11-23T07:39:18.373Z,5.53
2022-11-23T07:41:47.153Z,4.85
2022-11-23T07:44:13.946Z,5.20
2022-11-23T07:46:42.464Z,4.75
2022-11-23T07:49:09.352Z,5.18
2022-11-23T07:51:36.293Z,4.65
2022-11-23T07:54:03.194Z,4.47
2022-11-23T07:56:30.046Z,4.53
2022-11-23T07:58:57.046Z,4.68
2022-11-23T08:01:23.718Z,4.90
2022-11-23T08:03:50.391Z,3.83
2022-11-23T08:06:17.088Z,4.72
2022-11-23T08:08:44.726Z,4.47
2022-11-23T08:11:15.583Z,4.15
2022-11-23T08:13:43.392Z,4.38
2022-11-23T08:16:10.443Z,4.00
2022-11-23T08:18:37.204Z,4.40
2022-11-23T08:21:04.291Z,4.30
2022-11-23T08:23:31.269Z,4.18
2022-11-23T08:25:57.901Z,3.65
2022-11-23T08:28:24.743Z,4.38
2022-11-23T08:30:53.021Z,4.07
2022-11-23T08:33:19.581Z,3.97
2022-11-23T08:35:46.860Z,3.72
2022-11-23T08:38:14.804Z,4.03
2022-11-23T08:40:41.508Z,3.90
2022-11-23T08:43:09.620Z,3.50
2022-11-23T08:45:36.376Z,3.58
2022-11-23T08:48:04.284Z,3.20
2022-11-23T08:50:31.388Z,3.17
2022-11-23T08:52:59.382Z,3.38
2022-11-23T08:55:27.077Z,3.53
2022-11-23T08:57:59.089Z,3.95
2022-11-23T09:00:27.248Z,3.42
2022-11-23T09:02:54.098Z,4.25
2022-11-23T09:05:20.829Z,3.35
2022-11-23T09:07:48.130Z,3.75
2022-11-23T09:10:18.750Z,3.53
2022-11-23T09:12:47.674Z,3.67
2022-11-23T09:15:14.560Z,3.38
2022-11-23T09:17:42.509Z,3.20
2022-11-23T09:20:10.263Z,3.63
2022-11-23T09:22:37.019Z,3.63
2022-11-23T09:25:05.321Z,2.88
2022-11-23T09:27:33.201Z,3.13
2022-11-23T09:29:59.851Z,3.75
2022-11-23T09:32:26.729Z,3.17
2022-11-23T09:34:53.319Z,3.20
2022-11-23T09:37:19.919Z,3.25
2022-11-23T09:39:46.484Z,3.50
2022-11-23T09:42:21.721Z,3.85
2022-11-23T09:45:18.436Z,4.35
2022-11-23T09:48:03.461Z,3.53
2022-11-23T09:50:48.942Z,3.90
2022-11-23T09:53:42.643Z,3.78
2022-11-23T09:56:21.477Z,4.15
2022-11-23T09:58:52.312Z,3.97
2022-11-23T10:01:20.183Z,4.22
2022-11-23T10:03:49.548Z,3.53
2022-11-23T10:06:23.500Z,3.75
2022-11-23T10:09:02.324Z,4.15
2022-11-23T10:11:56.531Z,4.00
2022-11-23T10:14:49.347Z,8.73
2022-11-23T10:17:22.053Z,3.83
2022-11-23T10:19:58.635Z,4.22
2022-11-23T10:22:38.751Z,4.85
2022-11-23T10:25:16.305Z,3.00
2022-11-23T10:27:45.944Z,4.70
2022-11-23T10:30:14.069Z,4.43
2022-11-23T10:32:53.043Z,5.03
2022-11-23T10:35:30.605Z,3.70
2022-11-23T10:38:19.402Z,4.18
2022-11-23T10:41:12.878Z,5.35
2022-11-23T10:43:49.564Z,4.53
2022-11-23T10:46:26.051Z,6.07
2022-11-23T10:48:54.025Z,3.63
2022-11-23T10:51:34.423Z,3.10
2022-11-23T10:54:17.402Z,2.80
2022-11-23T10:56:51.895Z,2.75
2022-11-23T10:59:37.202Z,3.17
2022-11-23T11:02:23.071Z,2.30
2022-11-23T11:04:57.319Z,2.30
2022-11-23T11:07:31.478Z,2.90
2022-11-23T11:10:04.223Z,3.17
2022-11-23T11:12:34.659Z,2.20
2022-11-23T11:15:21.058Z,2.90
2022-11-23T11:17:58.346Z,3.22
2022-11-23T11:20:28.567Z,3.47
2022-11-23T11:22:57.480Z,2.75
2022-11-23T11:25:38.403Z,2.65
2022-11-23T11:28:18.527Z,2.60
2022-11-23T11:31:14.224Z,2.55
2022-11-23T11:34:09.675Z,2.40
2022-11-23T11:36:45.309Z,2.38
2022-11-23T11:39:22.964Z,2.72
2022-11-23T11:41:53.561Z,2.33
2022-11-23T11:44:24.810Z,2.45
2022-11-23T11:46:57.882Z,2.63
2022-11-23T11:49:40.661Z,2.42
2022-11-23T11:52:24.515Z,2.90
2022-11-23T11:55:01.563Z,2.72
2022-11-23T11:57:41.274Z,2.22
2022-11-23T12:00:15.518Z,1.67
2022-11-23T12:03:06.913Z,2.60
2022-11-23T12:05:43.033Z,3.80
2022-11-23T12:08:21.939Z,3.38
2022-11-23T12:10:52.960Z,2.60
2022-11-23T12:13:23.750Z,2.63
2022-11-23T12:16:16.244Z,2.50
2022-11-23T12:19:04.624Z,3.45
2022-11-23T12:21:54.238Z,3.22
2022-11-23T12:24:33.170Z,2.78
2022-11-23T12:27:15.106Z,3.42
2022-11-23T12:29:49.149Z,2.67
2022-11-23T12:32:41.167Z,2.80
2022-11-23T12:35:26.120Z,3.00
2022-11-23T12:38:19.911Z,2.42
2022-11-23T12:41:23.301Z,2.70
2022-11-23T12:44:34.800Z,3.45
2022-11-23T12:47:30.527Z,4.40
2022-11-23T12:50:05.886Z,2.70
2022-11-23T12:52:48.877Z,2.55
2022-11-23T12:55:29.487Z,3.75
2022-11-23T12:58:16.289Z,2.38
2022-11-23T13:00:55.422Z,2.17
2022-11-23T13:03:47.727Z,1.98
2022-11-23T13:06:33.304Z,1.80
2022-11-23T13:09:27.098Z,2.20
2022-11-23T13:12:12.437Z,2.00
2022-11-23T13:15:07.252Z,2.25
2022-11-23T13:17:46.862Z,2.75
2022-11-23T13:20:30.453Z,1.90
2022-11-23T13:22:58.457Z,1.77
2022-11-23T13:25:29.790Z,2.00
2022-11-23T13:28:02.390Z,1.83
2022-11-23T13:33:26.986Z,2.22
2022-11-23T13:36:00.062Z,2.20
2022-11-23T13:38:38.172Z,1.27
2022-11-23T13:41:33.841Z,1.13
2022-11-23T13:44:19.168Z,1.30
2022-11-23T13:46:58.986Z,1.38
2022-11-23T13:49:49.968Z,1.25
2022-11-23T13:52:22.805Z,1.25
2022-11-23T13:55:09.242Z,1.48
2022-11-23T13:57:42.533Z,2.25
2022-11-23T14:00:47.228Z,1.50
2022-11-23T14:03:53.580Z,1.50
2022-11-23T14:06:40.651Z,1.42
2022-11-23T14:09:25.866Z,4.30
2022-11-23T14:12:11.467Z,1.50
2022-11-23T14:15:06.707Z,1.20
2022-11-23T14:17:49.504Z,2.25
2022-11-23T14:20:49.437Z,1.08
2022-11-23T14:23:32.122Z,0.68
2022-11-23T14:26:25.309Z,1.02
2022-11-23T14:29:13.334Z,0.93
2022-11-23T14:32:02.767Z,1.00
2022-11-23T14:34:45.628Z,1.33
2022-11-23T14:37:43.264Z,1.85
2022-11-23T14:40:42.274Z,1.35
2022-11-23T14:43:13.976Z,1.45
2022-11-23T14:45:41.363Z,1.52
2022-11-23T14:48:21.035Z,1.30
2022-11-23T14:50:59.343Z,1.10
2022-11-23T14:53:30.428Z,1.58
2022-11-23T14:55:58.465Z,1.67
2022-11-23T14:58:28.635Z,2.10
2022-11-23T15:01:02.460Z,1.92
2022-11-23T15:03:49.972Z,3.33
2022-11-23T15:06:22.251Z,2.72
2022-11-23T15:09:00.884Z,1.98
2022-11-23T15:11:31.466Z,1.33
2022-11-23T15:14:04.563Z,1.52
2022-11-23T15:16:40.011Z,1.50
2022-11-23T15:19:26.991Z,1.40
2022-11-23T15:21:54.872Z,1.55
2022-11-23T15:24:23.913Z,1.75
2022-11-23T15:27:18.296Z,1.58
2022-11-23T15:29:58.121Z,1.65
2022-11-23T15:32:31.907Z,1.50
2022-11-23T15:35:07.408Z,1.77
2022-11-23T15:37:44.118Z,2.00
2022-11-23T15:40:19.811Z,2.33
2022-11-23T15:42:49.610Z,2.97
2022-11-23T15:45:44.185Z,2.20
2022-11-23T15:48:16.915Z,2.17
2022-11-23T15:50:58.184Z,2.40
2022-11-23T15:53:29.242Z,2.70
2022-11-23T15:56:04.132Z,2.50
2022-11-23T15:58:32.537Z,2.35
2022-11-23T16:01:08.640Z,3.00
2022-11-23T16:03:53.421Z,2.88
2022-11-23T16:06:31.177Z,3.40
2022-11-23T16:08:58.057Z,2.65
2022-11-23T16:11:36.697Z,2.83
2022-11-23T16:14:18.544Z,2.42
2022-11-23T16:17:19.162Z,2.70
2022-11-23T16:19:50.205Z,3.07
2022-11-23T16:22:30.848Z,2.90
2022-11-23T16:25:21.834Z,2.83
2022-11-23T16:28:04.685Z,2.75
2022-11-23T16:30:46.353Z,3.22
2022-11-23T16:33:16.093Z,3.50
2022-11-23T16:35:43.377Z,3.70
2022-11-23T16:38:12.515Z,3.65
2022-11-23T16:40:40.033Z,5.38
2022-11-23T16:43:14.121Z,4.63
2022-11-23T16:45:46.700Z,4.80
2022-11-23T16:48:25.968Z,6.78
2022-11-23T16:51:00.124Z,7.35
2022-11-23T16:53:30.230Z,5.45
2022-11-23T16:56:00.156Z,5.43
2022-11-23T16:58:31.147Z,9.30
2022-11-23T17:00:57.915Z,6.57
2022-11-23T17:03:24.912Z,6.60
2022-11-23T17:05:51.920Z,5.80
2022-11-23T17:08:23.581Z,5.72
2022-11-23T17:10:51.266Z,6.43
2022-11-23T17:13:24.919Z,5.63
2022-11-23T17:15:52.129Z,5.60
2022-11-23T17:18:18.865Z,6.30
2022-11-23T17:20:45.506Z,5.55
2022-11-23T17:23:12.398Z,6.40
2022-11-23T17:25:40.311Z,5.33
2022-11-23T17:28:14.809Z,6.17
2022-11-23T17:30:41.572Z,4.90
2022-11-23T17:33:12.114Z,6.27
2022-11-23T17:35:39.797Z,7.50
2022-11-23T17:38:12.194Z,8.00
2022-11-23T17:40:38.876Z,15.07
2022-11-23T17:43:05.497Z,14.27
2022-11-23T17:45:32.186Z,13.67
2022-11-23T17:48:03.129Z,13.40
2022-11-23T17:50:30.289Z,17.80
2022-11-23T17:52:57.227Z,16.75
2022-11-23T17:55:23.885Z,10.00
2022-11-23T17:57:50.756Z,8.87
2022-11-23T18:00:20.378Z,7.80
2022-11-23T18:02:47.825Z,6.77
2022-11-23T18:05:21.206Z,7.03
2022-11-23T18:07:54.568Z,6.90
2022-11-23T18:10:21.558Z,7.00
2022-11-23T18:12:48.629Z,6.63
2022-11-23T18:15:15.766Z,6.80
2022-11-23T18:17:43.115Z,7.20
2022-11-23T18:20:10.498Z,7.43
2022-11-23T18:22:41.321Z,7.03
2022-11-23T18:25:08.763Z,6.73
2022-11-23T18:27:35.903Z,6.83
2022-11-23T18:30:03.265Z,7.37
2022-11-23T18:32:30.311Z,6.70
2022-11-23T18:34:57.365Z,6.60
2022-11-23T18:37:27.614Z,8.13
2022-11-23T18:39:54.529Z,8.07
2022-11-23T18:42:21.676Z,7.57
2022-11-23T18:44:48.685Z,8.17
2022-11-23T18:47:15.861Z,8.00
2022-11-23T18:49:43.015Z,9.90
2022-11-23T18:52:13.748Z,9.67
2022-11-23T18:54:40.488Z,10.53
2022-11-23T18:57:07.946Z,9.90
2022-11-23T18:59:56.842Z,10.03
2022-11-23T19:02:21.175Z,10.53
2022-11-23T19:04:47.742Z,10.13
2022-11-23T19:07:14.750Z,10.07
2022-11-23T19:09:41.368Z,9.53
2022-11-23T19:12:08.074Z,9.63
2022-11-23T19:14:34.638Z,11.73
2022-11-23T19:17:01.510Z,11.97
2022-11-23T19:19:28.281Z,12.17
2022-11-23T19:21:54.847Z,11.27
2022-11-23T19:24:21.415Z,10.03
2022-11-23T19:26:48.064Z,15.23
2022-11-23T19:29:14.816Z,10.67
2022-11-23T19:31:41.516Z,10.20
2022-11-23T19:34:10.377Z,8.80
2022-11-23T19:36:37.223Z,9.82
2022-11-23T19:39:05.391Z,8.33
2022-11-23T19:41:32.212Z,11.60
2022-11-23T19:44:00.274Z,9.80
2022-11-23T19:46:28.099Z,7.80
2022-11-23T19:48:57.095Z,7.53
2022-11-23T19:51:25.787Z,7.05
2022-11-23T19:53:52.489Z,6.43
2022-11-23T19:56:22.549Z,6.00
2022-11-23T19:58:54.121Z,5.80
2022-11-23T20:01:22.712Z,6.18
2022-11-23T20:03:51.337Z,5.15
2022-11-23T20:06:25.240Z,5.20
2022-11-23T20:08:56.583Z,4.53
2022-11-23T20:11:23.795Z,5.22
2022-11-23T20:13:50.562Z,4.72
2022-11-23T20:16:18.968Z,4.95
2022-11-23T20:18:46.655Z,4.63
2022-11-23T20:21:19.294Z,4.90
2022-11-23T20:23:47.014Z,4.80
2022-11-23T20:26:15.366Z,4.18
2022-11-23T20:28:42.668Z,3.60
2022-11-23T20:31:21.140Z,4.10
2022-11-23T20:33:51.677Z,4.07
2022-11-23T20:36:19.610Z,3.75
2022-11-23T20:38:46.979Z,4.07
2022-11-23T20:41:18.480Z,3.58
2022-11-23T20:43:46.346Z,3.75
2022-11-23T20:46:16.723Z,3.85
2022-11-23T20:48:51.797Z,4.78
2022-11-23T20:51:20.895Z,4.13
2022-11-23T20:53:48.620Z,4.22
2022-11-23T20:56:16.120Z,3.95
2022-11-23T20:58:43.165Z,3.95
2022-11-23T21:01:18.319Z,3.30
2022-11-23T21:03:55.923Z,3.38
2022-11-23T21:06:23.128Z,2.97
2022-11-23T21:08:50.596Z,3.10
2022-11-23T21:11:38.528Z,3.88
2022-11-23T21:14:11.191Z,3.95
2022-11-23T21:16:53.320Z,3.13
2022-11-23T21:19:21.941Z,4.53
2022-11-23T21:21:49.071Z,5.63
2022-11-23T21:24:15.724Z,5.60
2022-11-23T21:26:42.291Z,4.32
2022-11-23T21:29:09.609Z,7.72
2022-11-23T21:31:37.720Z,4.15
2022-11-23T21:34:10.424Z,3.88
2022-11-23T21:36:39.215Z,4.95
2022-11-23T21:39:08.599Z,4.88
2022-11-23T21:41:35.841Z,5.05
2022-11-23T21:44:03.347Z,5.65
2022-11-23T21:46:30.024Z,4.15
2022-11-23T21:48:58.940Z,4.43
2022-11-23T21:51:28.531Z,5.10
2022-11-23T21:53:56.311Z,4.18
2022-11-23T21:56:23.525Z,5.22
2022-11-23T21:58:50.531Z,4.70
2022-11-23T22:01:22.881Z,7.05
2022-11-23T22:03:50.895Z,5.07
2022-11-23T22:06:20.738Z,4.95
2022-11-23T22:08:52.495Z,5.47
2022-11-23T22:11:27.221Z,5.50
2022-11-23T22:13:59.533Z,6.03
2022-11-23T22:16:33.960Z,5.93
2022-11-23T22:19:01.302Z,5.60
2022-11-23T22:21:32.010Z,5.25
2022-11-23T22:23:59.394Z,6.15
2022-11-23T22:26:27.606Z,5.60
2022-11-23T22:28:55.424Z,5.35
2022-11-23T22:31:25.433Z,5.60
2022-11-23T22:33:53.308Z,7.65
2022-11-23T22:36:22.014Z,5.57
2022-11-23T22:38:57.919Z,6.53
2022-11-23T22:41:27.936Z,5.55
2022-11-23T22:43:55.032Z,5.20
2022-11-23T22:46:23.901Z,5.72
2022-11-23T22:48:51.873Z,5.55
2022-11-23T22:51:20.522Z,6.97
2022-11-23T22:53:47.544Z,5.25
2022-11-23T22:56:16.145Z,5.28
2022-11-23T22:58:44.377Z,6.28
2022-11-23T23:01:16.934Z,5.63
2022-11-23T23:03:44.308Z,4.95
2022-11-23T23:06:19.453Z,5.63
2022-11-23T23:08:47.190Z,5.07
2022-11-23T23:11:15.125Z,5.35
2022-11-23T23:13:42.258Z,4.72
2022-11-23T23:16:11.627Z,5.05
2022-11-23T23:18:38.448Z,5.45
2022-11-23T23:21:10.501Z,5.47
2022-11-23T23:23:38.401Z,5.43
2022-11-23T23:26:05.833Z,4.90
2022-11-23T23:28:33.454Z,4.88
2022-11-23T23:31:05.752Z,5.07
2022-11-23T23:33:33.280Z,5.18
2022-11-23T23:36:06.808Z,5.57
2022-11-23T23:38:33.426Z,5.47
2022-11-23T23:41:00.753Z,5.53
2022-11-23T23:43:28.686Z,5.80
2022-11-23T23:46:01.020Z,5.32
2022-11-23T23:48:33.601Z,5.43
2022-11-23T23:51:08.551Z,5.05
2022-11-23T23:53:36.214Z,5.00
2022-11-23T23:56:06.107Z,5.40
2022-11-23T23:58:32.794Z,5.15
